sensor_id;sensor_type;location;lat;lon;timestamp;P1;durP1;ratioP1;P2;durP2;ratioP2
20884;SDS011;10602;48.000;9.654;2023-08-06T00:02:14;3.67;;;3.33;;
20884;SDS011;10602;48.000;9.654;2023-08-06T00:04:41;4.27;;;3.70;;
20884;SDS011;10602;48.000;9.654;2023-08-06T00:07:09;3.90;;;3.50;;
20884;SDS011;10602;48.000;9.654;2023-08-06T00:09:37;4.30;;;3.90;;
20884;SDS011;10602;48.000;9.654;2023-08-06T00:12:04;3.63;;;3.33;;
20884;SDS011;10602;48.000;9.654;2023-08-06T00:14:32;4.17;;;3.70;;
20884;SDS011;10602;48.000;9.654;2023-08-06T00:17:00;4.43;;;4.03;;
20884;SDS011;10602;48.000;9.654;2023-08-06T00:19:27;7.03;;;4.60;;
20884;SDS011;10602;48.000;9.654;2023-08-06T00:21:54;4.77;;;4.27;;
20884;SDS011;10602;48.000;9.654;2023-08-06T00:24:22;4.80;;;4.17;;
20884;SDS011;10602;48.000;9.654;2023-08-06T00:26:50;4.50;;;4.10;;
20884;SDS011;10602;48.000;9.654;2023-08-06T00:29:17;4.87;;;4.47;;
20884;SDS011;10602;48.000;9.654;2023-08-06T00:31:44;4.80;;;4.30;;
20884;SDS011;10602;48.000;9.654;2023-08-06T00:34:12;4.90;;;4.47;;
20884;SDS011;10602;48.000;9.654;2023-08-06T00:36:39;5.00;;;4.50;;
20884;SDS011;10602;48.000;9.654;2023-08-06T00:39:07;4.20;;;3.80;;
20884;SDS011;10602;48.000;9.654;2023-08-06T00:41:35;4.93;;;4.20;;
20884;SDS011;10602;48.000;9.654;2023-08-06T00:44:02;4.63;;;4.17;;
20884;SDS011;10602;48.000;9.654;2023-08-06T00:46:31;4.63;;;4.23;;
20884;SDS011;10602;48.000;9.654;2023-08-06T00:49:00;7.53;;;3.80;;
20884;SDS011;10602;48.000;9.654;2023-08-06T00:51:27;4.80;;;4.30;;
20884;SDS011;10602;48.000;9.654;2023-08-06T00:53:55;4.67;;;4.20;;
20884;SDS011;10602;48.000;9.654;2023-08-06T00:56:23;4.23;;;3.83;;
20884;SDS011;10602;48.000;9.654;2023-08-06T00:58:51;4.50;;;4.10;;
20884;SDS011;10602;48.000;9.654;2023-08-06T01:01:19;5.20;;;4.07;;
20884;SDS011;10602;48.000;9.654;2023-08-06T01:03:47;4.70;;;4.30;;
20884;SDS011;10602;48.000;9.654;2023-08-06T01:06:15;5.10;;;4.60;;
20884;SDS011;10602;48.000;9.654;2023-08-06T01:08:49;5.40;;;4.60;;
20884;SDS011;10602;48.000;9.654;2023-08-06T01:11:44;5.63;;;5.13;;
20884;SDS011;10602;48.000;9.654;2023-08-06T01:14:15;4.23;;;3.83;;
20884;SDS011;10602;48.000;9.654;2023-08-06T01:16:48;6.50;;;4.33;;
20884;SDS011;10602;48.000;9.654;2023-08-06T01:19:18;4.90;;;4.30;;
20884;SDS011;10602;48.000;9.654;2023-08-06T01:21:46;4.30;;;3.90;;
20884;SDS011;10602;48.000;9.654;2023-08-06T01:24:13;5.10;;;4.60;;
20884;SDS011;10602;48.000;9.654;2023-08-06T01:26:45;4.77;;;4.30;;
20884;SDS011;10602;48.000;9.654;2023-08-06T01:31:51;4.23;;;3.83;;
20884;SDS011;10602;48.000;9.654;2023-08-06T01:34:23;5.43;;;4.20;;
20884;SDS011;10602;48.000;9.654;2023-08-06T01:36:53;5.53;;;4.30;;
20884;SDS011;10602;48.000;9.654;2023-08-06T01:39:21;4.47;;;4.03;;
20884;SDS011;10602;48.000;9.654;2023-08-06T01:41:49;6.17;;;4.40;;
20884;SDS011;10602;48.000;9.654;2023-08-06T01:44:16;4.57;;;3.90;;
20884;SDS011;10602;48.000;9.654;2023-08-06T01:46:44;4.57;;;3.97;;
20884;SDS011;10602;48.000;9.654;2023-08-06T01:49:11;4.50;;;4.10;;
20884;SDS011;10602;48.000;9.654;2023-08-06T01:51:39;4.70;;;4.20;;
20884;SDS011;10602;48.000;9.654;2023-08-06T01:54:06;5.37;;;4.20;;
20884;SDS011;10602;48.000;9.654;2023-08-06T01:56:34;5.03;;;4.47;;
20884;SDS011;10602;48.000;9.654;2023-08-06T01:59:01;5.20;;;4.20;;
20884;SDS011;10602;48.000;9.654;2023-08-06T02:01:29;4.40;;;4.00;;
20884;SDS011;10602;48.000;9.654;2023-08-06T02:03:56;4.90;;;4.00;;
20884;SDS011;10602;48.000;9.654;2023-08-06T02:06:24;4.23;;;3.83;;
20884;SDS011;10602;48.000;9.654;2023-08-06T02:08:51;4.33;;;3.93;;
20884;SDS011;10602;48.000;9.654;2023-08-06T02:11:19;4.73;;;3.90;;
20884;SDS011;10602;48.000;9.654;2023-08-06T02:13:46;4.53;;;3.97;;
20884;SDS011;10602;48.000;9.654;2023-08-06T02:16:14;4.67;;;3.77;;
20884;SDS011;10602;48.000;9.654;2023-08-06T02:18:41;5.27;;;3.90;;
20884;SDS011;10602;48.000;9.654;2023-08-06T02:21:11;4.50;;;3.60;;
20884;SDS011;10602;48.000;9.654;2023-08-06T02:23:39;4.83;;;3.83;;
20884;SDS011;10602;48.000;9.654;2023-08-06T02:26:06;3.73;;;3.33;;
20884;SDS011;10602;48.000;9.654;2023-08-06T02:28:34;4.43;;;3.27;;
20884;SDS011;10602;48.000;9.654;2023-08-06T02:31:01;4.00;;;3.30;;
20884;SDS011;10602;48.000;9.654;2023-08-06T02:33:29;5.57;;;2.70;;
20884;SDS011;10602;48.000;9.654;2023-08-06T02:36:00;4.17;;;3.03;;
20884;SDS011;10602;48.000;9.654;2023-08-06T02:38:29;4.13;;;3.07;;
20884;SDS011;10602;48.000;9.654;2023-08-06T02:40:57;4.60;;;2.90;;
20884;SDS011;10602;48.000;9.654;2023-08-06T02:43:24;4.70;;;3.47;;
20884;SDS011;10602;48.000;9.654;2023-08-06T02:45:52;3.83;;;3.10;;
20884;SDS011;10602;48.000;9.654;2023-08-06T02:48:21;5.70;;;3.27;;
20884;SDS011;10602;48.000;9.654;2023-08-06T02:50:48;4.73;;;3.40;;
20884;SDS011;10602;48.000;9.654;2023-08-06T02:53:16;3.60;;;3.03;;
20884;SDS011;10602;48.000;9.654;2023-08-06T02:55:46;3.90;;;3.50;;
20884;SDS011;10602;48.000;9.654;2023-08-06T02:58:15;4.33;;;3.67;;
20884;SDS011;10602;48.000;9.654;2023-08-06T03:00:43;5.07;;;3.70;;
20884;SDS011;10602;48.000;9.654;2023-08-06T03:03:11;4.07;;;3.40;;
20884;SDS011;10602;48.000;9.654;2023-08-06T03:05:38;5.00;;;3.23;;
20884;SDS011;10602;48.000;9.654;2023-08-06T03:08:06;4.10;;;3.60;;
20884;SDS011;10602;48.000;9.654;2023-08-06T03:10:33;4.10;;;3.53;;
20884;SDS011;10602;48.000;9.654;2023-08-06T03:13:02;3.93;;;3.50;;
20884;SDS011;10602;48.000;9.654;2023-08-06T03:15:29;4.30;;;3.87;;
20884;SDS011;10602;48.000;9.654;2023-08-06T03:17:57;4.27;;;3.60;;
20884;SDS011;10602;48.000;9.654;2023-08-06T03:20:24;5.17;;;3.60;;
20884;SDS011;10602;48.000;9.654;2023-08-06T03:22:52;4.23;;;3.47;;
20884;SDS011;10602;48.000;9.654;2023-08-06T03:25:19;4.27;;;3.87;;
20884;SDS011;10602;48.000;9.654;2023-08-06T03:27:47;6.43;;;3.70;;
20884;SDS011;10602;48.000;9.654;2023-08-06T03:30:15;4.37;;;3.43;;
20884;SDS011;10602;48.000;9.654;2023-08-06T03:32:42;4.03;;;3.23;;
20884;SDS011;10602;48.000;9.654;2023-08-06T03:35:10;4.20;;;3.60;;
20884;SDS011;10602;48.000;9.654;2023-08-06T03:37:37;4.97;;;3.80;;
20884;SDS011;10602;48.000;9.654;2023-08-06T03:40:05;4.30;;;3.57;;
20884;SDS011;10602;48.000;9.654;2023-08-06T03:42:33;4.10;;;3.60;;
20884;SDS011;10602;48.000;9.654;2023-08-06T03:45:00;3.60;;;3.30;;
20884;SDS011;10602;48.000;9.654;2023-08-06T03:47:28;4.40;;;3.57;;
20884;SDS011;10602;48.000;9.654;2023-08-06T03:49:56;4.57;;;3.60;;
20884;SDS011;10602;48.000;9.654;2023-08-06T03:52:23;3.83;;;3.13;;
20884;SDS011;10602;48.000;9.654;2023-08-06T03:54:51;4.07;;;3.17;;
20884;SDS011;10602;48.000;9.654;2023-08-06T03:57:18;3.97;;;3.40;;
20884;SDS011;10602;48.000;9.654;2023-08-06T03:59:46;3.17;;;2.80;;
20884;SDS011;10602;48.000;9.654;2023-08-06T04:02:13;3.73;;;3.00;;
20884;SDS011;10602;48.000;9.654;2023-08-06T04:04:41;3.53;;;3.20;;
20884;SDS011;10602;48.000;9.654;2023-08-06T04:07:09;3.47;;;3.10;;
20884;SDS011;10602;48.000;9.654;2023-08-06T04:09:51;5.70;;;3.10;;
20884;SDS011;10602;48.000;9.654;2023-08-06T04:12:21;3.03;;;2.70;;
20884;SDS011;10602;48.000;9.654;2023-08-06T04:14:50;3.50;;;3.20;;
20884;SDS011;10602;48.000;9.654;2023-08-06T04:17:18;4.60;;;2.73;;
20884;SDS011;10602;48.000;9.654;2023-08-06T04:19:52;3.97;;;3.00;;
20884;SDS011;10602;48.000;9.654;2023-08-06T04:22:17;3.73;;;2.63;;
20884;SDS011;10602;48.000;9.654;2023-08-06T04:24:45;3.83;;;2.80;;
20884;SDS011;10602;48.000;9.654;2023-08-06T04:27:13;4.37;;;2.90;;
20884;SDS011;10602;48.000;9.654;2023-08-06T04:29:41;3.50;;;2.83;;
20884;SDS011;10602;48.000;9.654;2023-08-06T04:32:09;3.43;;;2.70;;
20884;SDS011;10602;48.000;9.654;2023-08-06T04:34:37;4.53;;;2.90;;
20884;SDS011;10602;48.000;9.654;2023-08-06T04:37:04;4.53;;;2.60;;
20884;SDS011;10602;48.000;9.654;2023-08-06T04:39:32;3.13;;;2.37;;
20884;SDS011;10602;48.000;9.654;2023-08-06T04:42:00;3.70;;;2.40;;
20884;SDS011;10602;48.000;9.654;2023-08-06T04:44:27;3.43;;;2.60;;
20884;SDS011;10602;48.000;9.654;2023-08-06T04:46:55;5.57;;;2.70;;
20884;SDS011;10602;48.000;9.654;2023-08-06T04:49:22;2.90;;;2.57;;
20884;SDS011;10602;48.000;9.654;2023-08-06T04:51:50;2.53;;;2.17;;
20884;SDS011;10602;48.000;9.654;2023-08-06T04:54:17;2.47;;;1.90;;
20884;SDS011;10602;48.000;9.654;2023-08-06T04:56:45;2.70;;;2.33;;
20884;SDS011;10602;48.000;9.654;2023-08-06T04:59:12;2.20;;;2.00;;
20884;SDS011;10602;48.000;9.654;2023-08-06T05:01:40;5.33;;;2.20;;
20884;SDS011;10602;48.000;9.654;2023-08-06T05:04:07;2.80;;;2.27;;
20884;SDS011;10602;48.000;9.654;2023-08-06T05:06:35;2.30;;;2.10;;
20884;SDS011;10602;48.000;9.654;2023-08-06T05:09:04;2.67;;;2.20;;
20884;SDS011;10602;48.000;9.654;2023-08-06T05:11:31;3.00;;;2.10;;
20884;SDS011;10602;48.000;9.654;2023-08-06T05:13:59;3.40;;;2.20;;
20884;SDS011;10602;48.000;9.654;2023-08-06T05:16:26;3.90;;;1.90;;
20884;SDS011;10602;48.000;9.654;2023-08-06T05:18:54;3.73;;;2.23;;
20884;SDS011;10602;48.000;9.654;2023-08-06T05:21:22;2.73;;;1.90;;
20884;SDS011;10602;48.000;9.654;2023-08-06T05:23:49;3.87;;;2.20;;
20884;SDS011;10602;48.000;9.654;2023-08-06T05:26:17;3.37;;;2.00;;
20884;SDS011;10602;48.000;9.654;2023-08-06T05:28:45;2.40;;;1.97;;
20884;SDS011;10602;48.000;9.654;2023-08-06T05:31:12;2.43;;;2.23;;
20884;SDS011;10602;48.000;9.654;2023-08-06T05:33:41;2.33;;;2.07;;
20884;SDS011;10602;48.000;9.654;2023-08-06T05:36:08;3.10;;;1.90;;
20884;SDS011;10602;48.000;9.654;2023-08-06T05:38:36;1.97;;;1.83;;
20884;SDS011;10602;48.000;9.654;2023-08-06T05:41:03;2.90;;;1.73;;
20884;SDS011;10602;48.000;9.654;2023-08-06T05:43:32;1.63;;;1.50;;
20884;SDS011;10602;48.000;9.654;2023-08-06T05:45:59;2.13;;;1.93;;
20884;SDS011;10602;48.000;9.654;2023-08-06T05:48:27;1.80;;;1.60;;
20884;SDS011;10602;48.000;9.654;2023-08-06T05:50:54;3.77;;;2.03;;
20884;SDS011;10602;48.000;9.654;2023-08-06T05:53:22;1.60;;;1.40;;
20884;SDS011;10602;48.000;9.654;2023-08-06T05:55:49;3.50;;;1.70;;
20884;SDS011;10602;48.000;9.654;2023-08-06T05:58:17;2.07;;;1.60;;
20884;SDS011;10602;48.000;9.654;2023-08-06T06:00:46;2.53;;;2.17;;
20884;SDS011;10602;48.000;9.654;2023-08-06T06:03:13;3.03;;;1.90;;
20884;SDS011;10602;48.000;9.654;2023-08-06T06:05:41;2.23;;;1.77;;
20884;SDS011;10602;48.000;9.654;2023-08-06T06:08:08;1.67;;;1.57;;
20884;SDS011;10602;48.000;9.654;2023-08-06T06:10:36;2.50;;;1.63;;
20884;SDS011;10602;48.000;9.654;2023-08-06T06:13:03;2.10;;;1.50;;
20884;SDS011;10602;48.000;9.654;2023-08-06T06:15:30;2.47;;;1.90;;
20884;SDS011;10602;48.000;9.654;2023-08-06T06:17:58;2.10;;;1.70;;
20884;SDS011;10602;48.000;9.654;2023-08-06T06:20:26;2.77;;;1.80;;
20884;SDS011;10602;48.000;9.654;2023-08-06T06:22:53;1.60;;;1.47;;
20884;SDS011;10602;48.000;9.654;2023-08-06T06:25:21;2.50;;;1.50;;
20884;SDS011;10602;48.000;9.654;2023-08-06T06:27:48;2.70;;;1.40;;
20884;SDS011;10602;48.000;9.654;2023-08-06T06:30:16;2.67;;;1.73;;
20884;SDS011;10602;48.000;9.654;2023-08-06T06:32:43;1.87;;;1.50;;
20884;SDS011;10602;48.000;9.654;2023-08-06T06:35:11;2.17;;;1.20;;
20884;SDS011;10602;48.000;9.654;2023-08-06T06:37:39;1.43;;;1.10;;
20884;SDS011;10602;48.000;9.654;2023-08-06T06:40:07;1.53;;;0.97;;
20884;SDS011;10602;48.000;9.654;2023-08-06T06:42:34;1.60;;;1.50;;
20884;SDS011;10602;48.000;9.654;2023-08-06T06:45:02;1.97;;;1.07;;
20884;SDS011;10602;48.000;9.654;2023-08-06T06:47:30;0.97;;;0.97;;
20884;SDS011;10602;48.000;9.654;2023-08-06T06:49:57;1.57;;;1.03;;
20884;SDS011;10602;48.000;9.654;2023-08-06T06:52:25;1.90;;;1.00;;
20884;SDS011;10602;48.000;9.654;2023-08-06T06:54:52;2.00;;;1.13;;
20884;SDS011;10602;48.000;9.654;2023-08-06T06:57:20;1.10;;;0.93;;
20884;SDS011;10602;48.000;9.654;2023-08-06T06:59:47;1.00;;;1.00;;
20884;SDS011;10602;48.000;9.654;2023-08-06T07:02:15;1.37;;;0.90;;
20884;SDS011;10602;48.000;9.654;2023-08-06T07:04:42;1.10;;;1.10;;
20884;SDS011;10602;48.000;9.654;2023-08-06T07:07:10;1.57;;;1.13;;
20884;SDS011;10602;48.000;9.654;2023-08-06T07:09:37;1.00;;;0.90;;
20884;SDS011;10602;48.000;9.654;2023-08-06T07:12:05;2.03;;;1.10;;
20884;SDS011;10602;48.000;9.654;2023-08-06T07:14:33;1.70;;;0.90;;
20884;SDS011;10602;48.000;9.654;2023-08-06T07:17:00;1.50;;;1.07;;
20884;SDS011;10602;48.000;9.654;2023-08-06T07:19:28;0.93;;;0.70;;
20884;SDS011;10602;48.000;9.654;2023-08-06T07:21:55;0.87;;;0.80;;
20884;SDS011;10602;48.000;9.654;2023-08-06T07:24:23;3.20;;;1.00;;
20884;SDS011;10602;48.000;9.654;2023-08-06T07:26:50;1.27;;;0.90;;
20884;SDS011;10602;48.000;9.654;2023-08-06T07:29:18;0.87;;;0.80;;
20884;SDS011;10602;48.000;9.654;2023-08-06T07:31:47;1.70;;;1.00;;
20884;SDS011;10602;48.000;9.654;2023-08-06T07:34:16;2.60;;;1.20;;
20884;SDS011;10602;48.000;9.654;2023-08-06T07:36:44;1.33;;;1.00;;
20884;SDS011;10602;48.000;9.654;2023-08-06T07:39:12;2.03;;;1.20;;
20884;SDS011;10602;48.000;9.654;2023-08-06T07:41:43;1.37;;;1.00;;
20884;SDS011;10602;48.000;9.654;2023-08-06T07:44:12;1.63;;;1.00;;
20884;SDS011;10602;48.000;9.654;2023-08-06T07:46:40;1.10;;;1.00;;
20884;SDS011;10602;48.000;9.654;2023-08-06T07:49:12;1.73;;;1.10;;
20884;SDS011;10602;48.000;9.654;2023-08-06T07:51:39;1.17;;;1.00;;
20884;SDS011;10602;48.000;9.654;2023-08-06T07:54:07;1.67;;;1.00;;
20884;SDS011;10602;48.000;9.654;2023-08-06T07:56:35;1.40;;;1.30;;
20884;SDS011;10602;48.000;9.654;2023-08-06T07:59:04;1.70;;;1.30;;
20884;SDS011;10602;48.000;9.654;2023-08-06T08:01:31;1.30;;;1.20;;
20884;SDS011;10602;48.000;9.654;2023-08-06T08:04:21;1.73;;;1.20;;
20884;SDS011;10602;48.000;9.654;2023-08-06T08:06:49;1.47;;;1.10;;
20884;SDS011;10602;48.000;9.654;2023-08-06T08:09:16;2.50;;;1.20;;
20884;SDS011;10602;48.000;9.654;2023-08-06T08:11:44;1.40;;;1.30;;
20884;SDS011;10602;48.000;9.654;2023-08-06T08:14:13;2.30;;;1.10;;
20884;SDS011;10602;48.000;9.654;2023-08-06T08:16:40;1.43;;;1.00;;
20884;SDS011;10602;48.000;9.654;2023-08-06T08:19:09;1.50;;;1.40;;
20884;SDS011;10602;48.000;9.654;2023-08-06T08:29:33;1.93;;;1.17;;
20884;SDS011;10602;48.000;9.654;2023-08-06T08:32:04;1.57;;;1.10;;
20884;SDS011;10602;48.000;9.654;2023-08-06T08:34:33;1.77;;;0.90;;
20884;SDS011;10602;48.000;9.654;2023-08-06T08:37:02;2.13;;;1.40;;
20884;SDS011;10602;48.000;9.654;2023-08-06T08:44:46;1.80;;;1.00;;
20884;SDS011;10602;48.000;9.654;2023-08-06T09:26:04;0.90;;;0.70;;
20884;SDS011;10602;48.000;9.654;2023-08-06T09:28:42;0.73;;;0.70;;
20884;SDS011;10602;48.000;9.654;2023-08-06T09:31:11;0.70;;;0.70;;
20884;SDS011;10602;48.000;9.654;2023-08-06T09:33:38;0.77;;;0.70;;
20884;SDS011;10602;48.000;9.654;2023-08-06T09:36:10;0.80;;;0.80;;
20884;SDS011;10602;48.000;9.654;2023-08-06T09:38:38;0.70;;;0.70;;
20884;SDS011;10602;48.000;9.654;2023-08-06T09:41:06;1.20;;;0.70;;
20884;SDS011;10602;48.000;9.654;2023-08-06T09:43:43;1.30;;;0.77;;
20884;SDS011;10602;48.000;9.654;2023-08-06T09:46:15;0.70;;;0.70;;
20884;SDS011;10602;48.000;9.654;2023-08-06T09:48:46;0.93;;;0.93;;
20884;SDS011;10602;48.000;9.654;2023-08-06T09:51:14;0.70;;;0.70;;
20884;SDS011;10602;48.000;9.654;2023-08-06T09:53:43;0.67;;;0.67;;
20884;SDS011;10602;48.000;9.654;2023-08-06T09:56:12;0.70;;;0.70;;
20884;SDS011;10602;48.000;9.654;2023-08-06T09:58:42;0.70;;;0.70;;
20884;SDS011;10602;48.000;9.654;2023-08-06T10:01:10;0.70;;;0.70;;
20884;SDS011;10602;48.000;9.654;2023-08-06T10:03:38;0.80;;;0.80;;
20884;SDS011;10602;48.000;9.654;2023-08-06T10:06:07;0.80;;;0.80;;
20884;SDS011;10602;48.000;9.654;2023-08-06T10:08:35;0.60;;;0.60;;
20884;SDS011;10602;48.000;9.654;2023-08-06T10:11:03;0.60;;;0.60;;
20884;SDS011;10602;48.000;9.654;2023-08-06T10:13:32;0.70;;;0.70;;
20884;SDS011;10602;48.000;9.654;2023-08-06T10:16:01;0.60;;;0.60;;
20884;SDS011;10602;48.000;9.654;2023-08-06T10:18:30;0.60;;;0.60;;
20884;SDS011;10602;48.000;9.654;2023-08-06T10:20:59;0.67;;;0.57;;
20884;SDS011;10602;48.000;9.654;2023-08-06T10:23:34;0.60;;;0.60;;
20884;SDS011;10602;48.000;9.654;2023-08-06T10:26:04;0.80;;;0.80;;
20884;SDS011;10602;48.000;9.654;2023-08-06T10:28:35;0.70;;;0.70;;
20884;SDS011;10602;48.000;9.654;2023-08-06T10:31:06;0.70;;;0.70;;
20884;SDS011;10602;48.000;9.654;2023-08-06T10:33:43;0.63;;;0.60;;
20884;SDS011;10602;48.000;9.654;2023-08-06T10:36:12;0.60;;;0.60;;
20884;SDS011;10602;48.000;9.654;2023-08-06T10:38:44;0.60;;;0.60;;
20884;SDS011;10602;48.000;9.654;2023-08-06T12:50:44;0.60;;;0.60;;
20884;SDS011;10602;48.000;9.654;2023-08-06T12:53:11;0.70;;;0.70;;
20884;SDS011;10602;48.000;9.654;2023-08-06T12:55:39;0.60;;;0.60;;
20884;SDS011;10602;48.000;9.654;2023-08-06T12:58:08;1.00;;;0.90;;
20884;SDS011;10602;48.000;9.654;2023-08-06T13:00:36;2.10;;;0.87;;
20884;SDS011;10602;48.000;9.654;2023-08-06T13:03:04;0.70;;;0.70;;
20884;SDS011;10602;48.000;9.654;2023-08-06T13:05:32;1.27;;;0.70;;
20884;SDS011;10602;48.000;9.654;2023-08-06T13:08:00;0.80;;;0.80;;
20884;SDS011;10602;48.000;9.654;2023-08-06T13:10:28;0.80;;;0.73;;
20884;SDS011;10602;48.000;9.654;2023-08-06T13:12:57;1.70;;;1.10;;
20884;SDS011;10602;48.000;9.654;2023-08-06T13:15:24;0.83;;;0.83;;
20884;SDS011;10602;48.000;9.654;2023-08-06T13:17:52;1.50;;;0.70;;
20884;SDS011;10602;48.000;9.654;2023-08-06T13:20:20;0.60;;;0.60;;
20884;SDS011;10602;48.000;9.654;2023-08-06T13:22:48;1.03;;;0.70;;
20884;SDS011;10602;48.000;9.654;2023-08-06T13:25:17;0.80;;;0.80;;
20884;SDS011;10602;48.000;9.654;2023-08-06T13:27:45;0.83;;;0.83;;
20884;SDS011;10602;48.000;9.654;2023-08-06T13:30:13;0.97;;;0.97;;
20884;SDS011;10602;48.000;9.654;2023-08-06T13:32:43;0.53;;;0.53;;
20884;SDS011;10602;48.000;9.654;2023-08-06T13:35:11;0.93;;;0.93;;
20884;SDS011;10602;48.000;9.654;2023-08-06T13:37:39;0.70;;;0.70;;
20884;SDS011;10602;48.000;9.654;2023-08-06T13:40:08;0.90;;;0.90;;
20884;SDS011;10602;48.000;9.654;2023-08-06T13:42:36;0.60;;;0.60;;
20884;SDS011;10602;48.000;9.654;2023-08-06T13:45:04;0.63;;;0.63;;
20884;SDS011;10602;48.000;9.654;2023-08-06T13:47:33;1.20;;;0.70;;
20884;SDS011;10602;48.000;9.654;2023-08-06T13:50:02;0.80;;;0.80;;
20884;SDS011;10602;48.000;9.654;2023-08-06T13:52:31;0.77;;;0.73;;
20884;SDS011;10602;48.000;9.654;2023-08-06T13:54:59;0.83;;;0.60;;
20884;SDS011;10602;48.000;9.654;2023-08-06T13:57:26;0.70;;;0.70;;
20884;SDS011;10602;48.000;9.654;2023-08-06T13:59:54;0.70;;;0.70;;
20884;SDS011;10602;48.000;9.654;2023-08-06T14:02:22;0.93;;;0.70;;
20884;SDS011;10602;48.000;9.654;2023-08-06T14:04:52;0.67;;;0.67;;
20884;SDS011;10602;48.000;9.654;2023-08-06T14:07:19;0.70;;;0.70;;
20884;SDS011;10602;48.000;9.654;2023-08-06T14:09:47;0.80;;;0.80;;
20884;SDS011;10602;48.000;9.654;2023-08-06T14:12:15;0.90;;;0.90;;
20884;SDS011;10602;48.000;9.654;2023-08-06T14:14:42;0.70;;;0.70;;
20884;SDS011;10602;48.000;9.654;2023-08-06T14:17:10;0.70;;;0.70;;
20884;SDS011;10602;48.000;9.654;2023-08-06T14:19:37;1.17;;;0.80;;
20884;SDS011;10602;48.000;9.654;2023-08-06T16:30:01;1.00;;;0.90;;
20884;SDS011;10602;48.000;9.654;2023-08-06T16:32:33;2.43;;;1.50;;
20884;SDS011;10602;48.000;9.654;2023-08-06T16:35:13;1.40;;;1.27;;
20884;SDS011;10602;48.000;9.654;2023-08-06T16:40:38;1.33;;;1.20;;
20884;SDS011;10602;48.000;9.654;2023-08-06T16:43:05;1.43;;;1.33;;
20884;SDS011;10602;48.000;9.654;2023-08-06T16:45:41;1.33;;;1.23;;
20884;SDS011;10602;48.000;9.654;2023-08-06T16:48:10;1.33;;;1.23;;
20884;SDS011;10602;48.000;9.654;2023-08-06T16:50:41;1.47;;;1.30;;
20884;SDS011;10602;48.000;9.654;2023-08-06T16:53:16;1.70;;;1.30;;
20884;SDS011;10602;48.000;9.654;2023-08-06T16:58:24;1.30;;;1.20;;
20884;SDS011;10602;48.000;9.654;2023-08-06T17:01:00;2.87;;;1.30;;
20884;SDS011;10602;48.000;9.654;2023-08-06T17:03:32;2.20;;;1.43;;
20884;SDS011;10602;48.000;9.654;2023-08-06T17:06:05;4.77;;;1.50;;
20884;SDS011;10602;48.000;9.654;2023-08-06T17:08:36;1.13;;;1.03;;
20884;SDS011;10602;48.000;9.654;2023-08-06T17:11:04;1.33;;;1.20;;
20884;SDS011;10602;48.000;9.654;2023-08-06T17:13:33;1.47;;;1.10;;
20884;SDS011;10602;48.000;9.654;2023-08-06T17:16:02;1.30;;;1.20;;
20884;SDS011;10602;48.000;9.654;2023-08-06T17:18:32;1.27;;;1.10;;
20884;SDS011;10602;48.000;9.654;2023-08-06T17:21:08;1.27;;;1.17;;
20884;SDS011;10602;48.000;9.654;2023-08-06T17:23:32;6.83;;;4.53;;
20884;SDS011;10602;48.000;9.654;2023-08-06T17:26:05;1.40;;;1.30;;
20884;SDS011;10602;48.000;9.654;2023-08-06T17:28:36;1.50;;;1.30;;
20884;SDS011;10602;48.000;9.654;2023-08-06T17:31:14;1.80;;;1.60;;
20884;SDS011;10602;48.000;9.654;2023-08-06T17:33:44;1.40;;;1.30;;
20884;SDS011;10602;48.000;9.654;2023-08-06T17:36:20;1.90;;;1.17;;
20884;SDS011;10602;48.000;9.654;2023-08-06T17:38:41;1.50;;;1.30;;
20884;SDS011;10602;48.000;9.654;2023-08-06T17:41:09;1.30;;;1.20;;
20884;SDS011;10602;48.000;9.654;2023-08-06T17:43:41;1.40;;;1.30;;
20884;SDS011;10602;48.000;9.654;2023-08-06T17:46:12;1.30;;;1.20;;
20884;SDS011;10602;48.000;9.654;2023-08-06T17:48:51;1.53;;;1.43;;
20884;SDS011;10602;48.000;9.654;2023-08-06T17:51:21;6.10;;;3.80;;
20884;SDS011;10602;48.000;9.654;2023-08-06T17:53:55;3.23;;;2.47;;
20884;SDS011;10602;48.000;9.654;2023-08-06T17:56:27;4.10;;;2.03;;
20884;SDS011;10602;48.000;9.654;2023-08-06T17:58:55;4.73;;;3.20;;
20884;SDS011;10602;48.000;9.654;2023-08-06T18:01:27;1.60;;;1.50;;
20884;SDS011;10602;48.000;9.654;2023-08-06T18:03:57;1.93;;;1.40;;
20884;SDS011;10602;48.000;9.654;2023-08-06T18:06:25;2.07;;;1.43;;
20884;SDS011;10602;48.000;9.654;2023-08-06T18:08:52;1.20;;;0.97;;
20884;SDS011;10602;48.000;9.654;2023-08-06T18:11:20;1.43;;;1.33;;
20884;SDS011;10602;48.000;9.654;2023-08-06T18:13:48;2.03;;;1.30;;
20884;SDS011;10602;48.000;9.654;2023-08-06T18:16:15;1.93;;;1.57;;
20884;SDS011;10602;48.000;9.654;2023-08-06T18:18:43;3.57;;;1.70;;
20884;SDS011;10602;48.000;9.654;2023-08-06T18:21:11;2.37;;;1.40;;
20884;SDS011;10602;48.000;9.654;2023-08-06T18:23:39;1.50;;;1.40;;
20884;SDS011;10602;48.000;9.654;2023-08-06T18:28:41;1.30;;;1.20;;
20884;SDS011;10602;48.000;9.654;2023-08-06T18:31:10;1.90;;;1.40;;
20884;SDS011;10602;48.000;9.654;2023-08-06T18:33:38;1.40;;;1.30;;
20884;SDS011;10602;48.000;9.654;2023-08-06T18:36:06;1.50;;;1.30;;
20884;SDS011;10602;48.000;9.654;2023-08-06T18:38:33;1.47;;;1.37;;
20884;SDS011;10602;48.000;9.654;2023-08-06T18:41:01;2.47;;;1.20;;
20884;SDS011;10602;48.000;9.654;2023-08-06T18:43:28;1.43;;;1.33;;
20884;SDS011;10602;48.000;9.654;2023-08-06T18:45:56;3.00;;;1.40;;
20884;SDS011;10602;48.000;9.654;2023-08-06T18:48:24;2.47;;;1.67;;
20884;SDS011;10602;48.000;9.654;2023-08-06T18:50:52;2.07;;;1.47;;
20884;SDS011;10602;48.000;9.654;2023-08-06T18:53:21;2.10;;;1.67;;
20884;SDS011;10602;48.000;9.654;2023-08-06T18:55:49;2.13;;;1.80;;
20884;SDS011;10602;48.000;9.654;2023-08-06T18:58:17;2.13;;;1.70;;
20884;SDS011;10602;48.000;9.654;2023-08-06T19:00:45;1.83;;;1.47;;
20884;SDS011;10602;48.000;9.654;2023-08-06T19:03:12;1.97;;;1.60;;
20884;SDS011;10602;48.000;9.654;2023-08-06T19:05:40;1.87;;;1.67;;
20884;SDS011;10602;48.000;9.654;2023-08-06T19:08:08;1.63;;;1.50;;
20884;SDS011;10602;48.000;9.654;2023-08-06T19:10:37;1.77;;;1.40;;
20884;SDS011;10602;48.000;9.654;2023-08-06T19:13:08;5.47;;;1.70;;
20884;SDS011;10602;48.000;9.654;2023-08-06T19:15:37;1.50;;;1.40;;
20884;SDS011;10602;48.000;9.654;2023-08-06T19:18:05;2.00;;;1.60;;
20884;SDS011;10602;48.000;9.654;2023-08-06T19:20:32;2.10;;;1.53;;
20884;SDS011;10602;48.000;9.654;2023-08-06T19:23:01;3.00;;;1.60;;
20884;SDS011;10602;48.000;9.654;2023-08-06T19:25:29;1.70;;;1.60;;
20884;SDS011;10602;48.000;9.654;2023-08-06T19:27:58;3.03;;;1.47;;
20884;SDS011;10602;48.000;9.654;2023-08-06T19:30:26;1.93;;;1.50;;
20884;SDS011;10602;48.000;9.654;2023-08-06T19:32:54;2.23;;;1.50;;
20884;SDS011;10602;48.000;9.654;2023-08-06T19:35:21;1.50;;;1.40;;
20884;SDS011;10602;48.000;9.654;2023-08-06T19:37:49;2.73;;;1.50;;
20884;SDS011;10602;48.000;9.654;2023-08-06T19:40:16;2.13;;;1.57;;
20884;SDS011;10602;48.000;9.654;2023-08-06T19:42:44;2.50;;;1.77;;
20884;SDS011;10602;48.000;9.654;2023-08-06T19:45:11;2.13;;;1.60;;
20884;SDS011;10602;48.000;9.654;2023-08-06T19:47:39;3.20;;;2.00;;
20884;SDS011;10602;48.000;9.654;2023-08-06T19:50:06;2.47;;;1.90;;
20884;SDS011;10602;48.000;9.654;2023-08-06T19:52:34;1.83;;;1.70;;
20884;SDS011;10602;48.000;9.654;2023-08-06T19:55:03;2.03;;;1.40;;
20884;SDS011;10602;48.000;9.654;2023-08-06T19:57:30;2.53;;;1.70;;
20884;SDS011;10602;48.000;9.654;2023-08-06T19:59:58;25.90;;;10.90;;
20884;SDS011;10602;48.000;9.654;2023-08-06T20:02:27;3.73;;;1.70;;
20884;SDS011;10602;48.000;9.654;2023-08-06T20:04:54;2.30;;;1.50;;
20884;SDS011;10602;48.000;9.654;2023-08-06T20:07:22;2.00;;;1.70;;
20884;SDS011;10602;48.000;9.654;2023-08-06T20:09:49;2.10;;;1.90;;
20884;SDS011;10602;48.000;9.654;2023-08-06T20:12:17;2.40;;;1.70;;
20884;SDS011;10602;48.000;9.654;2023-08-06T20:14:44;2.70;;;2.03;;
20884;SDS011;10602;48.000;9.654;2023-08-06T20:17:12;2.27;;;1.67;;